createdAt,value
2023-03-29T00:00:47.719Z,76.1618
2023-03-29T00:01:48.544Z,75.9207
2023-03-29T00:02:49.604Z,77.2253
2023-03-29T00:03:50.603Z,78.3546
2023-03-29T00:04:51.358Z,78.9430
2023-03-29T00:05:52.150Z,80.0686
2023-03-29T00:06:52.960Z,81.6320
2023-03-29T00:07:53.759Z,82.8654
2023-03-29T00:08:54.556Z,82.7909
2023-03-29T00:09:55.349Z,83.4796
2023-03-29T00:10:56.180Z,84.1701
2023-03-29T00:11:57.021Z,84.0151
2023-03-29T00:12:57.838Z,84.4495
2023-03-29T00:13:58.631Z,83.1569
2023-03-29T00:14:59.419Z,80.7971
2023-03-29T00:16:00.196Z,81.6767
2023-03-29T00:17:01.425Z,81.2527
2023-03-29T00:18:02.326Z,80.0771
2023-03-29T00:20:03.870Z,79.9488
2023-03-29T00:22:05.795Z,79.6058
2023-03-29T00:23:06.598Z,79.6937
2023-03-29T00:24:07.430Z,79.3182
2023-03-29T00:25:08.216Z,78.9926
2023-03-29T00:26:09.025Z,78.5992
2023-03-29T00:27:09.839Z,78.7298
2023-03-29T00:28:10.640Z,79.5794
2023-03-29T00:29:11.471Z,80.9076
2023-03-29T00:30:12.283Z,78.8259
2023-03-29T00:31:13.236Z,79.7586
2023-03-29T00:32:14.037Z,78.1539
2023-03-29T00:33:14.928Z,77.8577
2023-03-29T00:34:15.736Z,75.6088
2023-03-29T00:35:16.579Z,73.2028
2023-03-29T00:36:17.406Z,75.5541
2023-03-29T00:37:18.248Z,76.4536
2023-03-29T00:38:19.057Z,75.7401
2023-03-29T00:39:19.841Z,75.8528
2023-03-29T00:40:20.666Z,74.3747
2023-03-29T00:41:21.471Z,76.1288
2023-03-29T00:42:22.305Z,76.7594
2023-03-29T00:43:23.138Z,76.3848
2023-03-29T00:44:23.943Z,73.8884
2023-03-29T00:45:24.751Z,73.0966
2023-03-29T00:46:25.686Z,71.8025
2023-03-29T00:47:26.683Z,72.9810
2023-03-29T00:48:27.449Z,73.8931
2023-03-29T00:49:28.243Z,73.4660
2023-03-29T00:51:29.795Z,75.0120
2023-03-29T00:52:30.559Z,75.0622
2023-03-29T00:53:31.364Z,75.5423
2023-03-29T00:54:32.168Z,76.1054
2023-03-29T00:55:32.958Z,75.3002
2023-03-29T00:56:33.753Z,74.9462
2023-03-29T00:57:34.525Z,73.6304
2023-03-29T00:58:35.361Z,72.8439
2023-03-29T00:59:36.162Z,72.4523
2023-03-29T01:00:36.968Z,74.1858
2023-03-29T01:01:37.765Z,73.8365
2023-03-29T01:02:38.835Z,72.8512
2023-03-29T01:03:39.936Z,70.9999
2023-03-29T01:04:40.775Z,70.6084
2023-03-29T01:05:41.623Z,71.0316
2023-03-29T01:06:42.493Z,70.2840
2023-03-29T01:07:43.313Z,70.6590
2023-03-29T01:08:44.105Z,71.6798
2023-03-29T01:10:45.623Z,71.6011
2023-03-29T01:11:46.391Z,72.0025
2023-03-29T01:12:47.233Z,72.6069
2023-03-29T01:13:48.021Z,72.6111
2023-03-29T01:14:49.064Z,73.3039
2023-03-29T01:15:49.847Z,73.0959
2023-03-29T01:16:50.722Z,72.7794
2023-03-29T01:17:51.592Z,74.3622
2023-03-29T01:18:52.353Z,74.2049
2023-03-29T01:19:53.135Z,73.8077
2023-03-29T01:20:53.926Z,72.1926
2023-03-29T01:21:54.757Z,71.9056
2023-03-29T01:22:55.573Z,71.5896
2023-03-29T01:23:56.403Z,70.2411
2023-03-29T01:24:57.184Z,70.8789
2023-03-29T01:25:58.070Z,71.5194
2023-03-29T01:26:58.850Z,72.1750
2023-03-29T01:27:59.719Z,72.5511
2023-03-29T01:29:00.503Z,71.8866
2023-03-29T01:30:01.413Z,72.5325
2023-03-29T01:31:02.844Z,73.0220
2023-03-29T01:32:04.220Z,73.0153
2023-03-29T01:33:05.100Z,71.8012
2023-03-29T01:34:05.920Z,70.7065
2023-03-29T01:36:07.473Z,72.3660
2023-03-29T01:38:09.010Z,73.6746
2023-03-29T01:39:09.796Z,74.9646
2023-03-29T01:40:10.607Z,74.9874
2023-03-29T01:41:11.426Z,72.7921
2023-03-29T01:42:12.240Z,71.4138
2023-03-29T01:43:13.391Z,71.6111
2023-03-29T01:44:14.567Z,72.5406
2023-03-29T01:45:15.650Z,71.8524
2023-03-29T01:46:16.511Z,72.2293
2023-03-29T01:47:17.377Z,71.3139
2023-03-29T01:48:18.190Z,70.7866
2023-03-29T01:49:19.001Z,71.4830
2023-03-29T01:50:19.834Z,70.4344
2023-03-29T01:51:20.667Z,72.2695
2023-03-29T01:52:21.488Z,72.2985
2023-03-29T01:53:22.364Z,72.4756
2023-03-29T01:54:23.174Z,71.6901
2023-03-29T01:55:23.998Z,72.8960
2023-03-29T01:56:24.790Z,72.8072
2023-03-29T01:57:25.795Z,71.6650
2023-03-29T01:59:27.283Z,72.8989
2023-03-29T02:00:28.093Z,73.3500
2023-03-29T02:01:29.095Z,71.3005
2023-03-29T02:02:30.102Z,73.5429
2023-03-29T02:03:31.456Z,74.3165
2023-03-29T02:04:32.430Z,73.7916
2023-03-29T02:05:33.230Z,73.6678
2023-03-29T02:06:34.006Z,72.1648
2023-03-29T02:07:34.821Z,73.2902
2023-03-29T02:08:35.709Z,74.8554
2023-03-29T02:09:36.513Z,73.2100
2023-03-29T02:10:37.286Z,72.4489
2023-03-29T02:11:38.129Z,71.9212
2023-03-29T02:12:38.921Z,75.0106
2023-03-29T02:13:39.780Z,73.4535
2023-03-29T02:14:40.729Z,72.2633
2023-03-29T02:15:41.589Z,72.4112
2023-03-29T02:16:42.468Z,74.5259
2023-03-29T02:17:43.339Z,77.0598
2023-03-29T02:18:44.217Z,76.3138
2023-03-29T02:20:45.722Z,74.2420
2023-03-29T02:21:46.525Z,77.8125
2023-03-29T02:22:47.361Z,78.0620
2023-03-29T02:23:48.180Z,77.2273
2023-03-29T02:24:49.017Z,78.4170
2023-03-29T02:25:49.873Z,76.1678
2023-03-29T02:26:50.819Z,72.7994
2023-03-29T02:27:51.619Z,72.9546
2023-03-29T02:28:52.444Z,74.6732
2023-03-29T02:29:53.288Z,76.0676
2023-03-29T02:30:54.143Z,78.0832
2023-03-29T02:31:54.933Z,76.3597
2023-03-29T02:32:55.861Z,76.4176
2023-03-29T02:33:56.697Z,75.3178
2023-03-29T02:35:58.302Z,74.9222
2023-03-29T02:37:59.758Z,76.4654
2023-03-29T02:39:00.607Z,76.3358
2023-03-29T02:40:01.457Z,73.2093
2023-03-29T02:41:02.841Z,73.5753
2023-03-29T02:42:03.886Z,72.5985
2023-03-29T02:43:04.690Z,72.3208
2023-03-29T02:44:05.510Z,75.4306
2023-03-29T02:45:06.316Z,77.1468
2023-03-29T02:46:07.196Z,78.4804
2023-03-29T02:47:08.020Z,76.7937
2023-03-29T02:48:08.921Z,77.8081
2023-03-29T02:49:09.771Z,77.8727
2023-03-29T02:50:10.619Z,78.6033
2023-03-29T02:51:11.438Z,76.5304
2023-03-29T02:52:12.280Z,79.0611
2023-03-29T02:53:13.113Z,78.1418
2023-03-29T02:54:13.921Z,77.2438
2023-03-29T02:55:14.711Z,74.9538
2023-03-29T02:56:15.516Z,75.1276
2023-03-29T02:57:16.566Z,78.1772
2023-03-29T02:58:17.362Z,79.6850
2023-03-29T02:59:18.181Z,79.5989
2023-03-29T03:00:19.005Z,80.6286
2023-03-29T03:01:19.852Z,78.4831
2023-03-29T03:02:20.832Z,79.6789
2023-03-29T03:03:21.798Z,80.2700
2023-03-29T03:04:22.608Z,79.2910
2023-03-29T03:05:23.446Z,78.8674
2023-03-29T03:06:25.329Z,79.0888
2023-03-29T03:07:26.165Z,80.6493
2023-03-29T03:08:26.958Z,80.9072
2023-03-29T03:09:27.838Z,75.7561
2023-03-29T03:10:28.674Z,76.0424
2023-03-29T03:11:29.436Z,77.6187
2023-03-29T03:13:31.000Z,75.7827
2023-03-29T03:15:32.516Z,76.0280
2023-03-29T03:17:34.121Z,77.6195
2023-03-29T03:18:34.934Z,80.5657
2023-03-29T03:19:35.756Z,80.0450
2023-03-29T03:20:36.594Z,79.2123
2023-03-29T03:21:37.386Z,80.4271
2023-03-29T03:22:38.182Z,80.7958
2023-03-29T03:24:39.715Z,78.3940
2023-03-29T03:25:40.521Z,77.3584
2023-03-29T03:26:41.379Z,77.0524
2023-03-29T03:27:42.188Z,78.5331
2023-03-29T03:28:42.993Z,78.9043
2023-03-29T03:29:43.886Z,77.9175
2023-03-29T03:30:44.999Z,76.4693
2023-03-29T03:31:45.824Z,73.2716
2023-03-29T03:32:46.699Z,71.5508
2023-03-29T03:33:47.514Z,73.5414
2023-03-29T03:34:48.370Z,73.9270
2023-03-29T03:35:49.235Z,74.3173
2023-03-29T03:36:50.029Z,74.1722
2023-03-29T03:37:50.871Z,76.0999
2023-03-29T03:38:51.715Z,76.8989
2023-03-29T03:39:52.443Z,76.3561
2023-03-29T03:40:53.349Z,74.9724
2023-03-29T03:41:54.188Z,74.2602
2023-03-29T03:42:55.129Z,73.9657
2023-03-29T03:43:56.262Z,75.6923
2023-03-29T03:44:57.308Z,75.7177
2023-03-29T03:45:58.337Z,74.9749
2023-03-29T03:46:59.124Z,75.9903
2023-03-29T03:48:00.014Z,74.9341
2023-03-29T03:49:00.820Z,76.7545
2023-03-29T03:50:01.658Z,77.7653
2023-03-29T03:51:03.063Z,78.9849
2023-03-29T03:52:04.017Z,77.6953
2023-03-29T03:53:04.757Z,78.0405
2023-03-29T03:54:05.625Z,76.5482
2023-03-29T03:55:06.362Z,77.2348
2023-03-29T03:57:08.047Z,75.9482
2023-03-29T03:58:08.798Z,75.2669
2023-03-29T03:59:09.596Z,75.8622
2023-03-29T04:00:10.417Z,77.6533
2023-03-29T04:01:11.173Z,75.8020
2023-03-29T04:02:11.988Z,74.5409
2023-03-29T04:03:13.025Z,74.1657
2023-03-29T04:05:14.838Z,75.9592
2023-03-29T04:06:15.647Z,77.0918
2023-03-29T04:07:16.432Z,75.8116
2023-03-29T04:09:18.037Z,76.3894
2023-03-29T04:10:18.865Z,76.5199
2023-03-29T04:11:19.710Z,77.0650
2023-03-29T04:12:20.517Z,78.3146
2023-03-29T04:13:21.378Z,74.3527
2023-03-29T04:14:22.174Z,72.4630
2023-03-29T04:16:23.802Z,74.1445
2023-03-29T04:17:24.792Z,74.9733
2023-03-29T04:18:25.892Z,72.5938
2023-03-29T04:19:26.747Z,73.9826
2023-03-29T04:20:27.520Z,73.9378
2023-03-29T04:21:28.362Z,73.7858
2023-03-29T04:22:29.156Z,74.0789
2023-03-29T04:23:29.985Z,73.5521
2023-03-29T04:24:30.817Z,72.3281
2023-03-29T04:25:31.617Z,73.3394
2023-03-29T04:26:32.377Z,72.9637
2023-03-29T04:27:33.228Z,73.3729
2023-03-29T04:28:34.017Z,69.8502
2023-03-29T04:29:34.822Z,70.0926
2023-03-29T04:30:35.635Z,69.7619
2023-03-29T04:31:36.534Z,70.0472
2023-03-29T04:33:38.036Z,71.0223
2023-03-29T04:35:39.552Z,71.0448
2023-03-29T04:36:40.315Z,71.3457
2023-03-29T04:37:42.121Z,72.1467
2023-03-29T04:38:48.104Z,73.6899
2023-03-29T04:39:44.688Z,73.6216
2023-03-29T04:41:46.215Z,73.1168
2023-03-29T04:42:47.005Z,73.0487
2023-03-29T04:43:47.810Z,71.8688
2023-03-29T04:44:48.680Z,71.5722
2023-03-29T04:45:49.554Z,72.0435
2023-03-29T04:46:50.568Z,70.1337
2023-03-29T04:47:51.424Z,71.1597
2023-03-29T04:48:52.202Z,72.1580
2023-03-29T04:49:53.062Z,73.4460
2023-03-29T04:50:53.906Z,72.3951
2023-03-29T04:51:54.753Z,71.0436
2023-03-29T04:52:55.554Z,67.6230
2023-03-29T04:53:56.322Z,67.2540
2023-03-29T04:54:57.113Z,66.7866
2023-03-29T04:55:57.919Z,64.9132
2023-03-29T04:56:58.780Z,63.5725
2023-03-29T04:57:59.561Z,63.5005
2023-03-29T04:59:00.406Z,63.9010
2023-03-29T05:00:01.215Z,63.8386
2023-03-29T05:01:03.026Z,63.4879
2023-03-29T05:02:04.235Z,63.6285
2023-03-29T05:03:05.142Z,64.6456
2023-03-29T05:05:06.756Z,64.2508
2023-03-29T05:06:07.956Z,64.3285
2023-03-29T05:07:08.776Z,65.3552
2023-03-29T05:09:10.371Z,65.6695
2023-03-29T05:10:11.257Z,66.0644
2023-03-29T05:11:12.124Z,64.8473
2023-03-29T05:12:12.957Z,64.2681
2023-03-29T05:13:13.766Z,64.3230
2023-03-29T05:14:14.534Z,63.9809
2023-03-29T05:15:15.459Z,64.3102
2023-03-29T05:16:16.322Z,65.2335
2023-03-29T05:18:18.295Z,65.5613
2023-03-29T05:19:19.328Z,64.2278
2023-03-29T05:21:20.943Z,65.0907
2023-03-29T05:22:21.812Z,65.3671
2023-03-29T05:23:22.661Z,64.3047
2023-03-29T05:24:23.541Z,66.2329
2023-03-29T05:25:24.283Z,66.0597
2023-03-29T05:26:25.085Z,66.4742
2023-03-29T05:27:25.878Z,66.7881
2023-03-29T05:28:26.653Z,66.9578
2023-03-29T05:29:27.446Z,66.2362
2023-03-29T05:30:28.236Z,65.9151
2023-03-29T05:32:29.861Z,66.4108
2023-03-29T05:34:31.410Z,65.7785
2023-03-29T05:35:32.317Z,64.2746
2023-03-29T05:36:33.132Z,64.7200
2023-03-29T05:37:33.884Z,65.9411
2023-03-29T05:38:34.670Z,68.9135
2023-03-29T05:39:37.982Z,68.5513
2023-03-29T05:40:36.647Z,68.1161
2023-03-29T05:41:37.447Z,66.1062
2023-03-29T05:42:38.246Z,65.5808
2023-03-29T05:43:38.978Z,66.3804
2023-03-29T05:44:39.735Z,65.6057
2023-03-29T05:45:40.950Z,65.1464
2023-03-29T05:46:41.702Z,66.4040
2023-03-29T05:47:42.567Z,66.8532
2023-03-29T05:49:44.053Z,66.8719
2023-03-29T05:50:46.727Z,66.4233
2023-03-29T05:51:45.350Z,65.9753
2023-03-29T05:53:47.069Z,66.4302
2023-03-29T05:55:49.703Z,67.7361
2023-03-29T05:56:50.582Z,67.9904
2023-03-29T05:57:51.400Z,67.2983
2023-03-29T05:58:55.313Z,67.9063
2023-03-29T06:03:56.784Z,68.1094
2023-03-29T06:04:57.774Z,69.0813
2023-03-29T06:05:58.528Z,68.0604
2023-03-29T06:06:59.424Z,68.1150
2023-03-29T06:08:00.473Z,69.5902
2023-03-29T06:09:01.339Z,68.9032
2023-03-29T06:10:02.094Z,69.8722
2023-03-29T06:11:05.538Z,69.1699
2023-03-29T06:12:04.534Z,67.4041
2023-03-29T06:13:05.404Z,67.3685
2023-03-29T06:14:06.230Z,67.9295
2023-03-29T06:15:06.998Z,66.2355
2023-03-29T06:16:07.815Z,67.1050
2023-03-29T06:17:08.712Z,67.5755
2023-03-29T06:18:09.515Z,67.8854
2023-03-29T06:19:10.266Z,68.0698
2023-03-29T06:20:11.069Z,66.7972
2023-03-29T06:21:12.967Z,65.5131
2023-03-29T06:23:16.106Z,65.6928
2023-03-29T06:24:16.963Z,64.3778
2023-03-29T06:25:17.919Z,65.3687
2023-03-29T06:26:18.715Z,65.8256
2023-03-29T06:27:19.478Z,66.7417
2023-03-29T06:28:20.235Z,64.2445
2023-03-29T06:29:21.045Z,65.5686
2023-03-29T06:30:21.794Z,65.2963
2023-03-29T06:31:22.685Z,66.7236
2023-03-29T06:32:23.611Z,65.8214
2023-03-29T06:33:24.416Z,67.0018
2023-03-29T06:34:25.227Z,67.6818
2023-03-29T06:35:26.002Z,65.6640
2023-03-29T06:37:27.729Z,65.4462
2023-03-29T06:38:28.778Z,65.1645
2023-03-29T06:39:29.519Z,64.0826
2023-03-29T06:40:30.287Z,65.7331
2023-03-29T06:41:31.155Z,65.4709
2023-03-29T06:42:31.934Z,64.9594
2023-03-29T06:43:32.709Z,65.3482
2023-03-29T06:44:33.850Z,64.7866
2023-03-29T06:45:34.865Z,64.7584
2023-03-29T06:46:35.718Z,63.2274
2023-03-29T06:47:36.556Z,63.7009
2023-03-29T06:48:37.375Z,64.0885
2023-03-29T06:49:38.189Z,64.0454
2023-03-29T06:50:38.953Z,63.2309
2023-03-29T06:51:39.733Z,63.2494
2023-03-29T06:52:40.557Z,63.1534
2023-03-29T06:53:41.342Z,64.2544
2023-03-29T06:55:42.764Z,64.1942
2023-03-29T06:57:44.274Z,64.9353
2023-03-29T06:58:45.103Z,64.6134
2023-03-29T06:59:45.907Z,62.9646
2023-03-29T07:01:47.504Z,62.2966
2023-03-29T07:02:48.252Z,63.1937
2023-03-29T07:03:49.088Z,63.8604
2023-03-29T07:04:49.939Z,63.0915
2023-03-29T07:05:50.671Z,63.0386
2023-03-29T07:07:52.101Z,63.5707
2023-03-29T07:08:52.936Z,64.7164
2023-03-29T07:09:53.741Z,65.0528
2023-03-29T07:11:56.196Z,70.3479
2023-03-29T07:12:56.969Z,71.8606
2023-03-29T07:13:57.755Z,70.9223
2023-03-29T07:14:58.557Z,70.2195
2023-03-29T07:15:59.465Z,73.7489
2023-03-29T07:17:00.277Z,71.6864
2023-03-29T07:18:01.159Z,72.3102
2023-03-29T07:19:01.912Z,73.8598
2023-03-29T07:21:03.557Z,74.4245
2023-03-29T07:22:04.378Z,73.3275
2023-03-29T07:23:05.159Z,74.4285
2023-03-29T07:24:05.928Z,74.4753
2023-03-29T07:26:07.443Z,72.4112
2023-03-29T07:27:08.205Z,74.2470
2023-03-29T07:28:08.969Z,73.3278
2023-03-29T07:29:09.746Z,72.6036
2023-03-29T07:30:10.529Z,71.5846
2023-03-29T07:31:11.677Z,72.3848
2023-03-29T07:33:13.852Z,73.7502
2023-03-29T07:34:14.644Z,71.0379
2023-03-29T07:35:15.427Z,73.7246
2023-03-29T07:36:16.267Z,73.1017
2023-03-29T07:37:17.121Z,73.8404
2023-03-29T07:38:17.896Z,73.5555
2023-03-29T07:39:18.724Z,74.3203
2023-03-29T07:40:19.512Z,73.2507
2023-03-29T07:41:20.282Z,74.5483
2023-03-29T07:42:21.072Z,74.5177
2023-03-29T07:43:21.860Z,73.7421
2023-03-29T07:44:22.642Z,68.1659
2023-03-29T07:45:29.356Z,72.3126
2023-03-29T07:51:29.214Z,72.4069
2023-03-29T07:53:31.820Z,71.6553
2023-03-29T07:54:32.607Z,72.4479
2023-03-29T07:55:33.406Z,71.6430
2023-03-29T07:56:34.203Z,69.9071
2023-03-29T07:57:34.956Z,68.9971
2023-03-29T07:58:35.774Z,69.5853
2023-03-29T07:59:36.515Z,68.1753
2023-03-29T08:00:37.300Z,66.2177
2023-03-29T08:01:38.049Z,66.5692
2023-03-29T08:02:38.810Z,68.2839
2023-03-29T08:03:39.646Z,69.3070
2023-03-29T08:04:40.445Z,68.1446
2023-03-29T08:05:42.606Z,69.6451
2023-03-29T08:08:42.639Z,70.6497
2023-03-29T08:09:43.458Z,68.4141
2023-03-29T08:10:44.196Z,68.5696
2023-03-29T08:11:44.940Z,69.1923
2023-03-29T08:12:45.727Z,67.5751
2023-03-29T08:13:46.466Z,67.8509
2023-03-29T08:14:47.227Z,68.8543
2023-03-29T08:15:48.036Z,71.1861
2023-03-29T08:16:48.859Z,70.4386
2023-03-29T08:17:49.664Z,70.1045
2023-03-29T08:18:50.516Z,70.3703
2023-03-29T08:19:52.743Z,71.3282
2023-03-29T08:21:52.054Z,70.4217
2023-03-29T08:23:53.459Z,71.8988
2023-03-29T08:24:54.239Z,72.1903
2023-03-29T08:25:55.060Z,70.8626
2023-03-29T08:26:55.893Z,71.3592
2023-03-29T08:27:56.807Z,71.8511
2023-03-29T08:28:57.581Z,72.2454
2023-03-29T08:29:58.336Z,71.2423
2023-03-29T08:30:59.216Z,72.5385
2023-03-29T08:31:59.954Z,71.6176
2023-03-29T08:33:00.829Z,69.6200
2023-03-29T08:34:01.602Z,67.9634
2023-03-29T08:35:02.386Z,71.3932
2023-03-29T08:36:03.211Z,69.7078
2023-03-29T08:37:03.968Z,67.7862
2023-03-29T08:38:04.778Z,69.6384
2023-03-29T08:39:05.550Z,69.0828
2023-03-29T08:41:07.000Z,67.6978
2023-03-29T08:42:07.824Z,67.5099
2023-03-29T08:43:08.622Z,68.2256
2023-03-29T08:44:09.387Z,68.0409
2023-03-29T08:45:10.143Z,67.3479
2023-03-29T08:46:10.930Z,66.9805
2023-03-29T08:47:11.701Z,64.9147
2023-03-29T08:48:12.489Z,66.5540
2023-03-29T08:49:13.290Z,65.4714
2023-03-29T08:50:14.103Z,68.2360
2023-03-29T08:51:14.849Z,64.3366
2023-03-29T08:52:15.640Z,66.2245
2023-03-29T08:53:16.429Z,67.0307
2023-03-29T08:54:17.219Z,66.6369
2023-03-29T08:55:17.993Z,64.5490
2023-03-29T08:56:18.760Z,64.2433
2023-03-29T08:57:19.699Z,65.3036
2023-03-29T08:58:20.511Z,63.9745
2023-03-29T08:59:21.301Z,65.4113
2023-03-29T09:00:22.043Z,65.7958
2023-03-29T09:01:22.996Z,64.5076
2023-03-29T09:02:24.357Z,63.5225
2023-03-29T09:03:25.321Z,64.4327
2023-03-29T09:04:26.183Z,63.9761
2023-03-29T09:05:26.986Z,62.3988
2023-03-29T09:06:27.884Z,62.7803
2023-03-29T09:08:29.365Z,63.1811
2023-03-29T09:10:30.918Z,62.2510
2023-03-29T09:12:32.319Z,63.3041
2023-03-29T09:13:33.239Z,62.4175
2023-03-29T09:14:33.982Z,63.5229
2023-03-29T09:15:34.783Z,63.8255
2023-03-29T09:16:35.686Z,63.3384
2023-03-29T09:17:36.477Z,63.2021
2023-03-29T09:18:37.331Z,64.2697
2023-03-29T09:19:38.194Z,64.6641
2023-03-29T09:20:39.005Z,64.5009
2023-03-29T09:21:39.786Z,66.1765
2023-03-29T09:22:40.552Z,66.5220
2023-03-29T09:23:41.373Z,63.9724
2023-03-29T09:29:47.044Z,64.6736
2023-03-29T09:30:47.833Z,64.4146
2023-03-29T09:31:48.727Z,64.3055
2023-03-29T09:32:49.537Z,64.4288
2023-03-29T09:33:50.272Z,65.0808
2023-03-29T09:34:51.044Z,64.3872
2023-03-29T09:35:51.926Z,65.0457
2023-03-29T09:36:52.832Z,65.9993
2023-03-29T09:37:53.589Z,65.9551
2023-03-29T09:38:54.600Z,65.5516
2023-03-29T09:39:55.349Z,66.9360
2023-03-29T09:40:56.202Z,68.4502
2023-03-29T09:41:56.953Z,67.9071
2023-03-29T09:42:57.707Z,66.0214
2023-03-29T09:43:58.541Z,66.6693
2023-03-29T09:44:59.332Z,64.7700
2023-03-29T09:46:00.321Z,67.6878
2023-03-29T09:47:01.120Z,66.4339
2023-03-29T09:48:01.928Z,67.9296
2023-03-29T09:49:02.688Z,64.0587
2023-03-29T09:50:03.482Z,65.8568
2023-03-29T09:51:05.067Z,64.6800
2023-03-29T09:52:05.887Z,66.1353
2023-03-29T09:53:06.668Z,63.7562
2023-03-29T09:54:07.460Z,64.4544
2023-03-29T09:56:09.111Z,64.0036
2023-03-29T09:57:10.073Z,63.7498
2023-03-29T09:58:10.878Z,65.0324
2023-03-29T09:59:11.680Z,66.4393
2023-03-29T10:00:12.481Z,66.1552
2023-03-29T10:01:13.289Z,65.1229
2023-03-29T10:02:14.011Z,65.3517
2023-03-29T10:03:14.840Z,61.9920
2023-03-29T10:04:15.636Z,65.3670
2023-03-29T10:05:16.392Z,65.1580
2023-03-29T10:06:17.181Z,64.8784
2023-03-29T10:07:17.955Z,64.8546
2023-03-29T10:19:27.322Z,62.0603
2023-03-29T10:20:28.096Z,63.6914
2023-03-29T10:21:28.853Z,61.3585
2023-03-29T10:22:29.651Z,63.6858
2023-03-29T10:23:30.426Z,60.6864
2023-03-29T10:24:31.162Z,60.5043
2023-03-29T10:25:31.922Z,62.1434
2023-03-29T10:26:32.730Z,62.8691
2023-03-29T10:27:33.488Z,61.8793
2023-03-29T10:28:34.265Z,62.8074
2023-03-29T10:29:35.065Z,62.8617
2023-03-29T10:30:35.885Z,61.8656
2023-03-29T10:31:36.695Z,61.7208
2023-03-29T10:33:38.144Z,61.1638
2023-03-29T10:34:38.987Z,60.8584
2023-03-29T10:35:39.778Z,59.9650
2023-03-29T10:36:40.568Z,61.0320
2023-03-29T10:37:41.341Z,60.6054
2023-03-29T10:38:42.100Z,59.5252
2023-03-29T10:39:42.879Z,55.4840
2023-03-29T10:40:43.666Z,56.1845
2023-03-29T10:41:44.467Z,57.8189
2023-03-29T10:42:45.255Z,55.8415
2023-03-29T10:43:46.280Z,54.0692
2023-03-29T10:45:47.747Z,56.5359
2023-03-29T10:46:48.479Z,57.6184
2023-03-29T10:48:49.982Z,57.1854
2023-03-29T10:50:51.971Z,57.7019
2023-03-29T10:51:52.719Z,55.9017
2023-03-29T10:52:53.456Z,54.8627
2023-03-29T10:53:54.293Z,53.8143
2023-03-29T10:54:55.088Z,54.8360
2023-03-29T10:55:55.879Z,61.0480
2023-03-29T10:56:56.793Z,58.4282
2023-03-29T10:57:57.548Z,59.9996
2023-03-29T10:58:58.324Z,62.6460
2023-03-29T10:59:59.085Z,61.7564
2023-03-29T11:01:00.299Z,62.7306
2023-03-29T11:02:01.326Z,62.7579
2023-03-29T11:03:02.198Z,64.8350
2023-03-29T11:04:03.192Z,65.6033
2023-03-29T11:05:04.058Z,66.0479
2023-03-29T11:06:04.861Z,64.1348
2023-03-29T11:07:05.676Z,64.2019
2023-03-29T11:08:06.454Z,62.8208
2023-03-29T11:09:07.279Z,61.5769
2023-03-29T11:10:08.100Z,62.3875
2023-03-29T11:11:08.859Z,60.1442
2023-03-29T11:12:16.542Z,60.7475
2023-03-29T11:13:10.645Z,59.9024
2023-03-29T11:15:12.086Z,56.5612
2023-03-29T11:16:12.906Z,55.9630
2023-03-29T11:17:13.705Z,56.7419
2023-03-29T11:18:14.468Z,55.5349
2023-03-29T11:19:15.238Z,57.0392
2023-03-29T11:20:16.058Z,54.9279
2023-03-29T11:21:16.852Z,56.3699
2023-03-29T11:22:17.663Z,54.9633
2023-03-29T11:23:18.465Z,54.8961
2023-03-29T11:24:19.285Z,55.7245
2023-03-29T11:25:20.105Z,54.7421
2023-03-29T11:26:20.882Z,55.3030
2023-03-29T11:27:21.705Z,54.9525
2023-03-29T11:29:23.216Z,51.2357
2023-03-29T11:31:24.999Z,53.6989
2023-03-29T11:32:25.946Z,49.4100
2023-03-29T11:33:26.689Z,49.4145
2023-03-29T11:34:27.486Z,50.3463
2023-03-29T11:35:28.276Z,49.6147
2023-03-29T11:36:29.089Z,50.3641
2023-03-29T11:37:29.829Z,47.8529
2023-03-29T11:38:30.625Z,49.0297
2023-03-29T11:39:32.438Z,50.0026
2023-03-29T11:40:33.370Z,49.3846
2023-03-29T11:41:34.179Z,49.4096
2023-03-29T11:42:34.984Z,48.6684
2023-03-29T11:43:35.783Z,48.1427
2023-03-29T11:44:36.626Z,47.1369
2023-03-29T11:45:37.440Z,48.5755
2023-03-29T11:46:38.380Z,49.2589
2023-03-29T11:47:39.156Z,50.4666
2023-03-29T11:48:39.938Z,51.8546
2023-03-29T11:49:40.725Z,51.5198
2023-03-29T11:50:41.536Z,51.7362
2023-03-29T11:51:42.337Z,50.8055
2023-03-29T11:53:43.841Z,51.6095
2023-03-29T11:54:44.791Z,52.5878
2023-03-29T11:55:45.570Z,51.3572
2023-03-29T11:56:46.431Z,53.1239
2023-03-29T11:57:47.187Z,53.3925
2023-03-29T11:58:48.002Z,52.5985
2023-03-29T11:59:48.805Z,54.7258
2023-03-29T12:00:49.566Z,54.5115
2023-03-29T12:01:50.407Z,54.5481
2023-03-29T12:02:51.355Z,54.9581
2023-03-29T12:03:52.372Z,56.0739
2023-03-29T12:04:53.208Z,55.0683
2023-03-29T12:05:54.003Z,56.0397
2023-03-29T12:06:54.835Z,56.0642
2023-03-29T12:07:55.646Z,56.0047
2023-03-29T12:08:56.404Z,55.1419
2023-03-29T12:09:57.202Z,55.3000
2023-03-29T12:10:57.991Z,56.8553
2023-03-29T12:11:58.852Z,56.5797
2023-03-29T12:12:59.638Z,57.0595
2023-03-29T12:14:00.424Z,57.3608
2023-03-29T12:15:01.259Z,56.6846
2023-03-29T12:16:02.122Z,56.7372
2023-03-29T12:17:03.183Z,58.4429
2023-03-29T12:19:05.039Z,58.6473
2023-03-29T12:20:05.833Z,58.6973
2023-03-29T12:23:08.208Z,57.9830
2023-03-29T12:24:09.104Z,58.9597
2023-03-29T12:25:10.662Z,59.5748
2023-03-29T12:26:11.456Z,60.9257
2023-03-29T12:27:12.231Z,62.5239
2023-03-29T12:28:13.025Z,61.4862
2023-03-29T12:30:14.558Z,61.7066
2023-03-29T12:31:15.363Z,61.4079
2023-03-29T12:32:16.382Z,62.7157
2023-03-29T12:33:17.280Z,59.8363
2023-03-29T12:34:18.121Z,59.4907
2023-03-29T12:35:18.919Z,57.7868
2023-03-29T12:36:19.685Z,58.1325
2023-03-29T12:37:20.512Z,58.2695
2023-03-29T12:39:21.973Z,59.7637
2023-03-29T12:40:22.800Z,60.2145
2023-03-29T12:41:23.579Z,59.1513
2023-03-29T12:42:24.357Z,56.5879
2023-03-29T12:43:25.124Z,58.2929
2023-03-29T12:44:25.949Z,58.3330
2023-03-29T12:45:26.802Z,58.7558
2023-03-29T12:46:27.830Z,56.7307
2023-03-29T12:47:28.706Z,58.7634
2023-03-29T12:49:30.173Z,55.5858
2023-03-29T12:50:30.931Z,52.7826
2023-03-29T12:51:31.721Z,52.7942
2023-03-29T12:52:32.522Z,54.1708
2023-03-29T12:53:33.302Z,52.9157
2023-03-29T12:54:34.126Z,52.4973
2023-03-29T12:55:34.901Z,53.8094
2023-03-29T12:56:35.680Z,55.2519
2023-03-29T12:57:36.464Z,56.5515
2023-03-29T12:59:38.038Z,59.7251
2023-03-29T13:00:39.038Z,59.1535
2023-03-29T13:01:40.079Z,60.2081
2023-03-29T13:02:41.726Z,59.4928
2023-03-29T13:03:42.521Z,59.6536
2023-03-29T13:04:43.352Z,60.3283
2023-03-29T13:05:44.210Z,59.3001
2023-03-29T13:09:47.160Z,58.5699
2023-03-29T13:10:47.994Z,56.7573
2023-03-29T13:11:48.818Z,55.5032
2023-03-29T13:12:49.662Z,57.8678
2023-03-29T13:13:50.476Z,56.2704
2023-03-29T13:14:51.228Z,58.2578
2023-03-29T13:15:52.085Z,56.4856
2023-03-29T13:16:52.861Z,55.3271
2023-03-29T13:17:53.783Z,54.9798
2023-03-29T13:18:54.553Z,56.0606
2023-03-29T13:19:55.386Z,55.9440
2023-03-29T13:20:56.150Z,54.8076
2023-03-29T13:21:56.959Z,54.7756
2023-03-29T13:22:57.773Z,55.1300
2023-03-29T13:23:58.569Z,54.7129
2023-03-29T13:24:59.385Z,54.8600
2023-03-29T13:26:00.681Z,54.6492
2023-03-29T13:27:01.535Z,55.1778
2023-03-29T13:28:02.337Z,57.3149
2023-03-29T13:29:03.168Z,56.1041
2023-03-29T13:30:03.969Z,57.9727
2023-03-29T13:31:04.754Z,59.5917
2023-03-29T13:32:05.529Z,60.1486
2023-03-29T13:33:06.443Z,59.4900
2023-03-29T13:34:07.283Z,59.4628
2023-03-29T13:35:08.052Z,59.9442
2023-03-29T13:36:09.035Z,59.2554
2023-03-29T13:37:09.782Z,61.0788
2023-03-29T13:38:10.606Z,61.8099
2023-03-29T13:39:11.367Z,58.1569
2023-03-29T13:40:12.172Z,59.7448
2023-03-29T13:47:17.694Z,58.7735
2023-03-29T13:48:18.523Z,59.2500
2023-03-29T13:49:19.331Z,58.6184
2023-03-29T13:50:20.112Z,59.3103
2023-03-29T13:51:20.920Z,56.7275
2023-03-29T13:52:21.681Z,56.0412
2023-03-29T13:53:22.521Z,56.7689
2023-03-29T13:54:23.311Z,55.4881
2023-03-29T13:55:24.110Z,55.6699
2023-03-29T13:56:24.932Z,54.5429